Terminal Aerodrome Forecast
Issued by NWS Tallahassee, FL

Home | Current Version | Previous Version | Text Only | Print | Product List | Glossary On
Versions: 1 2 3 4 5 6 7 8 9 10 11 12 13 14 15 16 17
000
FTUS42 KTAE 161500 AAA
TAFTLH
TAF AMD
KTLH 161538Z 1616/1712 06008KT P6SM FEW150
     FM162200 08006KT P6SM SCT030 SCT250
     FM170800 06010KT P6SM BKN015=

USA.gov is the U.S. government's official web portal to all federal, state and local government web resources and services.